createdAt,value
2018-04-10T00:00:32.706Z,15.40
2018-04-10T00:03:01.098Z,15.50
2018-04-10T00:05:29.281Z,15.50
2018-04-10T00:07:57.439Z,15.50
2018-04-10T00:10:25.581Z,15.60
2018-04-10T00:12:53.689Z,15.40
2018-04-10T00:15:21.760Z,15.50
2018-04-10T00:17:49.870Z,15.50
2018-04-10T00:20:18.083Z,15.50
2018-04-10T00:22:46.368Z,15.40
2018-04-10T00:25:14.638Z,15.40
2018-04-10T00:27:43.133Z,15.30
2018-04-10T00:30:11.728Z,15.30
2018-04-10T00:32:39.836Z,15.30
2018-04-10T00:35:08.001Z,15.20
2018-04-10T00:37:36.218Z,15.20
2018-04-10T00:40:04.425Z,15.10
2018-04-10T00:42:32.711Z,15.00
2018-04-10T00:45:01.057Z,15.00
2018-04-10T00:47:29.130Z,14.90
2018-04-10T00:49:57.365Z,14.80
2018-04-10T00:52:25.510Z,14.80
2018-04-10T00:54:55.160Z,14.80
2018-04-10T00:57:23.265Z,14.70
2018-04-10T00:59:51.371Z,14.70
2018-04-10T01:02:19.807Z,14.60
2018-04-10T01:04:48.183Z,14.60
2018-04-10T01:07:17.206Z,14.50
2018-04-10T01:09:45.376Z,14.50
2018-04-10T01:12:13.519Z,14.50
2018-04-10T01:14:41.601Z,14.50
2018-04-10T01:17:09.694Z,14.40
2018-04-10T01:19:38.083Z,14.40
2018-04-10T01:22:06.347Z,14.30
2018-04-10T01:24:34.477Z,14.30
2018-04-10T01:27:02.583Z,14.20
2018-04-10T01:29:30.788Z,14.20
2018-04-10T01:31:59.265Z,14.20
2018-04-10T01:34:27.396Z,14.20
2018-04-10T01:36:55.578Z,14.20
2018-04-10T01:39:23.931Z,14.20
2018-04-10T01:41:52.246Z,14.20
2018-04-10T01:44:20.422Z,14.20
2018-04-10T01:46:48.727Z,14.20
2018-04-10T01:49:17.063Z,14.20
2018-04-10T01:51:45.905Z,14.20
2018-04-10T01:54:14.006Z,14.10
2018-04-10T01:56:42.281Z,14.10
2018-04-10T01:59:10.424Z,14.10
2018-04-10T02:01:38.673Z,14.10
2018-04-10T02:04:07.010Z,14.00
2018-04-10T02:06:35.103Z,14.00
2018-04-10T02:09:03.397Z,14.00
2018-04-10T02:14:12.708Z,14.00
2018-04-10T02:16:41.013Z,14.00
2018-04-10T02:19:09.271Z,14.00
2018-04-10T02:21:37.570Z,14.00
2018-04-10T02:24:05.903Z,13.90
2018-04-10T02:26:34.324Z,13.90
2018-04-10T02:29:02.454Z,13.90
2018-04-10T02:31:30.665Z,13.80
2018-04-10T02:33:59.068Z,13.80
2018-04-10T02:36:27.326Z,13.80
2018-04-10T02:38:55.480Z,13.80
2018-04-10T02:41:23.669Z,13.80
2018-04-10T02:43:51.851Z,13.80
2018-04-10T02:46:20.084Z,13.80
2018-04-10T02:48:48.615Z,13.90
2018-04-10T02:51:16.727Z,13.80
2018-04-10T02:53:44.926Z,13.80
2018-04-10T02:56:13.306Z,13.80
2018-04-10T02:58:41.409Z,13.70
2018-04-10T03:01:09.869Z,13.70
2018-04-10T03:03:38.018Z,13.70
2018-04-10T03:06:06.161Z,13.70
2018-04-10T03:08:34.340Z,13.60
2018-04-10T03:11:02.415Z,13.70
2018-04-10T03:13:30.840Z,13.70
2018-04-10T03:15:58.954Z,13.60
2018-04-10T03:18:27.193Z,13.60
2018-04-10T03:20:55.657Z,13.50
2018-04-10T03:23:24.021Z,13.50
2018-04-10T03:25:52.356Z,13.50
2018-04-10T03:28:20.703Z,13.40
2018-04-10T03:30:49.075Z,13.40
2018-04-10T03:33:17.384Z,13.50
2018-04-10T03:35:45.478Z,13.40
2018-04-10T03:38:13.784Z,13.30
2018-04-10T03:40:41.965Z,13.40
2018-04-10T03:43:10.350Z,13.40
2018-04-10T03:45:38.630Z,13.50
2018-04-10T03:48:06.812Z,13.50
2018-04-10T03:50:34.884Z,13.50
2018-04-10T03:53:03.002Z,13.50
2018-04-10T03:55:31.171Z,13.40
2018-04-10T03:57:59.492Z,13.40
2018-04-10T04:00:27.565Z,13.30
2018-04-10T04:02:55.930Z,13.30
2018-04-10T04:05:24.297Z,13.30
2018-04-10T04:07:52.709Z,13.30
2018-04-10T04:10:21.068Z,13.40
2018-04-10T04:12:49.476Z,13.40
2018-04-10T04:15:17.674Z,13.40
2018-04-10T04:17:45.779Z,13.40
2018-04-10T04:20:25.834Z,13.30
2018-04-10T04:22:54.217Z,13.20
2018-04-10T04:25:22.358Z,13.20
2018-04-10T04:27:50.441Z,13.20
2018-04-10T04:30:18.552Z,13.20
2018-04-10T04:32:46.788Z,13.20
2018-04-10T04:35:14.881Z,13.10
2018-04-10T04:37:42.981Z,13.00
2018-04-10T04:40:11.266Z,12.90
2018-04-10T04:42:39.374Z,12.90
2018-04-10T04:45:07.865Z,12.80
2018-04-10T04:47:36.172Z,12.80
2018-04-10T04:50:04.302Z,12.70
2018-04-10T04:52:32.599Z,12.70
2018-04-10T04:55:01.011Z,12.70
2018-04-10T04:57:29.221Z,12.60
2018-04-10T04:59:57.740Z,12.60
2018-04-10T05:02:26.081Z,12.60
2018-04-10T05:04:54.184Z,12.50
2018-04-10T05:07:23.951Z,12.50
2018-04-10T05:09:52.082Z,12.50
2018-04-10T05:12:20.406Z,12.40
2018-04-10T05:14:48.623Z,12.40
2018-04-10T05:17:16.720Z,12.50
2018-04-10T05:19:44.828Z,12.50
2018-04-10T05:22:13.230Z,12.50
2018-04-10T05:24:41.352Z,12.50
2018-04-10T05:27:09.782Z,12.50
2018-04-10T05:29:38.153Z,12.40
2018-04-10T05:32:06.408Z,12.50
2018-04-10T05:34:34.718Z,12.40
2018-04-10T05:37:03.229Z,12.40
2018-04-10T05:39:31.504Z,12.40
2018-04-10T05:42:00.264Z,12.40
2018-04-10T05:44:28.934Z,12.40
2018-04-10T05:46:57.037Z,12.50
2018-04-10T05:49:25.436Z,12.60
2018-04-10T05:51:53.903Z,12.60
2018-04-10T05:54:22.317Z,12.60
2018-04-10T05:56:50.560Z,12.70
2018-04-10T05:59:18.797Z,12.80
2018-04-10T06:01:47.242Z,12.80
2018-04-10T06:04:15.521Z,12.90
2018-04-10T06:06:43.790Z,12.90
2018-04-10T06:09:12.136Z,13.00
2018-04-10T06:11:40.475Z,13.10
2018-04-10T06:14:08.892Z,13.20
2018-04-10T06:16:37.208Z,13.30
2018-04-10T06:19:05.643Z,13.40
2018-04-10T06:21:33.839Z,13.50
2018-04-10T06:24:01.995Z,13.60
2018-04-10T06:26:30.204Z,13.70
2018-04-10T06:28:58.957Z,13.80
2018-04-10T06:31:27.253Z,13.90
2018-04-10T06:33:55.668Z,14.00
2018-04-10T06:36:23.834Z,14.10
2018-04-10T06:38:52.100Z,14.20
2018-04-10T06:41:20.846Z,14.30
2018-04-10T06:43:48.918Z,14.40
2018-04-10T06:46:17.448Z,14.50
2018-04-10T06:48:45.608Z,14.50
2018-04-10T06:51:14.026Z,14.60
2018-04-10T06:53:42.145Z,14.70
2018-04-10T06:56:10.524Z,14.80
2018-04-10T06:58:47.970Z,14.90
2018-04-10T07:01:16.421Z,15.10
2018-04-10T07:03:44.551Z,15.20
2018-04-10T07:06:12.923Z,15.30
2018-04-10T07:08:41.606Z,15.50
2018-04-10T07:11:09.886Z,15.60
2018-04-10T07:13:38.215Z,15.70
2018-04-10T07:16:06.864Z,15.70
2018-04-10T07:18:35.054Z,15.90
2018-04-10T07:21:03.473Z,16.00
2018-04-10T07:23:31.715Z,16.00
2018-04-10T07:26:00.315Z,16.10
2018-04-10T07:28:28.738Z,16.30
2018-04-10T07:30:57.237Z,16.30
2018-04-10T07:33:25.700Z,16.40
2018-04-10T07:35:53.925Z,16.50
2018-04-10T07:38:22.049Z,16.60
2018-04-10T07:40:50.531Z,16.70
2018-04-10T07:43:18.828Z,16.80
2018-04-10T07:45:47.184Z,16.90
2018-04-10T07:48:15.544Z,17.00
2018-04-10T07:50:43.893Z,17.10
2018-04-10T07:53:12.014Z,17.20
2018-04-10T07:55:40.520Z,17.30
2018-04-10T07:58:08.724Z,17.30
2018-04-10T08:00:36.871Z,17.40
2018-04-10T08:03:05.430Z,17.60
2018-04-10T08:05:34.165Z,17.70
2018-04-10T08:08:02.543Z,17.80
2018-04-10T08:10:30.970Z,17.90
2018-04-10T08:12:59.057Z,18.10
2018-04-10T08:15:27.172Z,18.20
2018-04-10T08:17:55.382Z,18.30
2018-04-10T08:20:23.857Z,18.50
2018-04-10T08:22:52.079Z,18.60
2018-04-10T08:25:20.568Z,18.70
2018-04-10T08:27:49.168Z,18.80
2018-04-10T08:30:17.511Z,18.90
2018-04-10T08:32:46.141Z,19.00
2018-04-10T08:35:14.224Z,19.10
2018-04-10T08:37:42.631Z,19.30
2018-04-10T08:40:11.294Z,19.30
2018-04-10T08:42:39.413Z,19.40
2018-04-10T08:45:07.942Z,19.50
2018-04-10T08:47:36.413Z,19.50
2018-04-10T08:50:04.641Z,19.70
2018-04-10T08:52:33.408Z,19.80
2018-04-10T08:55:01.560Z,20.00
2018-04-10T08:57:30.040Z,20.20
2018-04-10T08:59:58.253Z,20.20
2018-04-10T09:02:26.524Z,20.40
2018-04-10T09:04:54.678Z,20.50
2018-04-10T09:07:22.995Z,20.60
2018-04-10T09:09:51.608Z,20.50
2018-04-10T09:12:19.909Z,20.70
2018-04-10T09:14:48.426Z,20.70
2018-04-10T09:17:16.827Z,20.70
2018-04-10T09:19:45.141Z,20.80
2018-04-10T09:22:13.479Z,20.90
2018-04-10T09:24:41.617Z,20.90
2018-04-10T09:27:09.944Z,21.00
2018-04-10T09:29:38.412Z,20.90
2018-04-10T09:32:06.572Z,21.10
2018-04-10T09:34:35.079Z,21.20
2018-04-10T09:37:03.297Z,21.20
2018-04-10T09:39:31.515Z,21.30
2018-04-10T09:41:59.621Z,21.30
2018-04-10T09:44:28.050Z,21.70
2018-04-10T09:46:56.517Z,21.70
2018-04-10T09:49:24.630Z,21.80
2018-04-10T09:51:52.774Z,21.80
2018-04-10T09:54:21.403Z,22.00
2018-04-10T09:56:49.793Z,22.20
2018-04-10T09:59:18.270Z,22.10
2018-04-10T10:01:46.661Z,22.10
2018-04-10T10:04:14.871Z,22.10
2018-04-10T10:06:43.009Z,22.20
2018-04-10T10:09:11.370Z,22.30
2018-04-10T10:11:39.562Z,22.40
2018-04-10T10:14:08.307Z,22.40
2018-04-10T10:16:36.450Z,22.40
2018-04-10T10:19:04.607Z,22.40
2018-04-10T10:21:33.093Z,22.50
2018-04-10T10:24:01.648Z,22.50
2018-04-10T10:26:29.820Z,22.50
2018-04-10T10:28:58.069Z,22.60
2018-04-10T10:31:26.579Z,22.50
2018-04-10T10:33:54.654Z,22.50
2018-04-10T10:36:23.019Z,22.70
2018-04-10T10:38:51.314Z,22.80
2018-04-10T10:41:19.732Z,22.90
2018-04-10T10:43:48.156Z,23.00
2018-04-10T10:46:16.447Z,23.10
2018-04-10T10:48:44.849Z,23.20
2018-04-10T10:51:13.288Z,23.40
2018-04-10T10:53:41.531Z,23.40
2018-04-10T10:56:09.631Z,23.40
2018-04-10T10:58:37.796Z,23.50
2018-04-10T11:01:06.547Z,23.40
2018-04-10T11:03:34.708Z,23.30
2018-04-10T11:06:03.252Z,23.20
2018-04-10T11:08:31.919Z,23.20
2018-04-10T11:11:00.013Z,23.10
2018-04-10T11:13:28.423Z,22.90
2018-04-10T11:15:56.622Z,22.90
2018-04-10T11:18:24.764Z,22.90
2018-04-10T11:20:53.214Z,23.00
2018-04-10T11:23:21.604Z,23.00
2018-04-10T11:25:49.825Z,23.10
2018-04-10T11:28:18.321Z,23.10
2018-04-10T11:30:46.665Z,23.10
2018-04-10T11:33:14.819Z,23.20
2018-04-10T11:35:43.137Z,23.20
2018-04-10T11:38:11.478Z,23.30
2018-04-10T11:40:39.588Z,23.40
2018-04-10T11:43:07.668Z,23.50
2018-04-10T11:45:36.043Z,23.40
2018-04-10T11:48:04.129Z,23.40
2018-04-10T11:50:32.325Z,23.50
2018-04-10T11:53:00.510Z,23.40
2018-04-10T11:55:28.976Z,23.40
2018-04-10T11:57:57.273Z,23.30
2018-04-10T12:00:25.670Z,23.30
2018-04-10T12:02:54.103Z,23.40
2018-04-10T12:05:22.427Z,23.40
2018-04-10T12:07:50.728Z,23.40
2018-04-10T12:10:18.890Z,23.60
2018-04-10T12:12:47.206Z,23.80
2018-04-10T12:15:15.556Z,23.70
2018-04-10T12:17:43.953Z,23.50
2018-04-10T12:20:12.060Z,23.50
2018-04-10T12:22:40.552Z,23.50
2018-04-10T12:25:09.096Z,23.20
2018-04-10T12:27:37.210Z,23.20
2018-04-10T12:30:05.571Z,23.20
2018-04-10T12:32:33.838Z,23.20
2018-04-10T12:35:02.093Z,23.20
2018-04-10T12:37:30.386Z,23.30
2018-04-10T12:39:58.747Z,23.00
2018-04-10T12:42:26.946Z,23.20
2018-04-10T12:44:55.041Z,23.20
2018-04-10T12:47:23.225Z,23.20
2018-04-10T12:49:51.387Z,23.20
2018-04-10T12:52:19.704Z,23.30
2018-04-10T12:54:47.957Z,23.30
2018-04-10T20:33:37.338Z,14.50
2018-04-10T20:36:05.421Z,14.60
2018-04-10T20:38:33.541Z,14.70
2018-04-10T20:41:01.620Z,14.70
2018-04-10T20:43:30.033Z,14.60
2018-04-10T20:45:58.382Z,14.50
2018-04-10T20:48:26.545Z,14.40
2018-04-10T20:50:54.639Z,14.40
2018-04-10T20:53:23.027Z,14.30
2018-04-10T20:55:51.125Z,14.20
2018-04-10T20:58:19.220Z,14.20
2018-04-10T21:00:47.609Z,14.20
2018-04-10T21:03:15.817Z,14.00
2018-04-10T21:05:43.974Z,13.90
2018-04-10T21:08:12.120Z,13.90
2018-04-10T21:10:40.338Z,13.90
2018-04-10T21:13:08.410Z,13.80
2018-04-10T21:15:36.586Z,13.70
2018-04-10T21:18:04.700Z,13.50
2018-04-10T21:20:33.033Z,13.40
2018-04-10T21:23:01.394Z,13.50
2018-04-10T21:25:29.656Z,13.40
2018-04-10T21:27:57.768Z,13.40
2018-04-10T21:30:25.952Z,13.40
2018-04-10T21:32:54.201Z,13.20
2018-04-10T21:35:22.382Z,13.10
2018-04-10T21:37:50.751Z,13.10
2018-04-10T21:40:18.860Z,12.90
2018-04-10T21:42:52.910Z,12.90
2018-04-10T21:45:21.218Z,12.80
2018-04-10T21:47:49.522Z,12.70
2018-04-10T21:50:17.629Z,12.70
2018-04-10T21:52:45.908Z,12.70
2018-04-10T21:55:14.075Z,12.70
2018-04-10T21:57:42.500Z,12.60
2018-04-10T22:00:10.908Z,12.50
2018-04-10T22:02:39.015Z,12.40
2018-04-10T22:05:07.318Z,12.50
2018-04-10T22:07:35.582Z,12.40
2018-04-10T22:10:03.688Z,12.20
2018-04-10T22:12:31.798Z,12.10
2018-04-10T22:15:00.225Z,12.00
2018-04-10T22:17:28.606Z,12.10
2018-04-10T22:19:56.916Z,12.00
2018-04-10T22:22:25.029Z,11.90
2018-04-10T22:24:53.374Z,12.00
2018-04-10T22:27:21.555Z,11.90
2018-04-10T22:29:49.662Z,11.90
2018-04-10T22:32:17.928Z,11.90
2018-04-10T22:34:46.214Z,11.80
2018-04-10T22:37:14.450Z,11.60
2018-04-10T22:39:42.727Z,11.60
2018-04-10T22:42:11.093Z,11.40
2018-04-10T22:44:39.473Z,11.40
2018-04-10T22:47:07.869Z,11.30
2018-04-10T22:49:36.171Z,11.20
2018-04-10T22:52:04.254Z,11.10
2018-04-10T22:54:37.179Z,11.10
2018-04-10T22:57:05.325Z,11.10
2018-04-10T22:59:33.481Z,11.00
2018-04-10T23:02:01.754Z,11.10
2018-04-10T23:04:29.914Z,11.00
2018-04-10T23:06:58.234Z,11.00
2018-04-10T23:09:26.334Z,10.90
2018-04-10T23:11:54.458Z,10.90
2018-04-10T23:14:22.888Z,10.90
2018-04-10T23:16:51.073Z,10.80
2018-04-10T23:19:19.161Z,10.80
2018-04-10T23:21:47.320Z,10.80
2018-04-10T23:24:15.754Z,10.70
2018-04-10T23:26:44.053Z,10.70
2018-04-10T23:29:12.146Z,10.60
2018-04-10T23:31:40.464Z,10.40
2018-04-10T23:34:08.779Z,10.30
2018-04-10T23:36:36.950Z,10.20
2018-04-10T23:39:05.079Z,10.20
2018-04-10T23:41:33.413Z,10.10
2018-04-10T23:44:01.507Z,10.10
2018-04-10T23:46:29.618Z,10.10
2018-04-10T23:48:57.717Z,10.10
2018-04-10T23:51:25.971Z,10.10
2018-04-10T23:53:54.069Z,10.20
2018-04-10T23:56:22.494Z,10.10
2018-04-10T23:58:50.803Z,10.10
